CheckWX is a tool to help pilots better visualize weather data.  It is not intended as a substitute for an official pre-flight weather briefing.

21:24:49 UTC

KLPR METAR
Lorain County Regional Airport
Lorain/Elyria, Ohio, USA
Current

32 mins ago

KLPR 232053Z AUTO 16012KT 10SM OVC016 08/02 A2995 RMK AO2 SLP148 T00780022 56033
Observed
Feb-23 @ 20:53 UTC
Wind
  • 160° at 12 KTS
Visibility
10 SM
Flight Rules
MVFR
Cloud Levels
  • Overcast at 1,600' AGL
Temperature
C / 46°F
Dewpoint
C / 36°F
Humidity
66%
Altimeter
29.95" Hg
Pressure
1014.8 hPa
Previous

2 hours ago

KLPR 231953Z AUTO 16013G19KT 10SM BKN015 OVC046 08/02 A2997 RMK AO2 SLP153 T00780017
Observed
Feb-23 @ 19:53 UTC
Wind
  • 160° at 13 KTS
  • Gusting to 19 KTS
Visibility
10 SM
Flight Rules
MVFR
Cloud Levels
  • Broken at 1,500' AGL
  • Overcast at 4,600' AGL
Temperature
C / 46°F
Dewpoint
C / 36°F
Humidity
66%
Altimeter
29.97" Hg
Pressure
1015.3 hPa
Previous

3 hours ago

KLPR 231853Z AUTO 16012KT 10SM OVC022 07/01 A3001 RMK AO2 SLP168 T00670011
Observed
Feb-23 @ 18:53 UTC
Wind
  • 160° at 12 KTS
Visibility
10 SM
Flight Rules
MVFR
Cloud Levels
  • Overcast at 2,200' AGL
Temperature
C / 45°F
Dewpoint
C / 34°F
Humidity
66%
Altimeter
30.01" Hg
Pressure
1016.8 hPa